Time;durP1;ratioP1;P1;durP2;ratioP2;P2;SDS_P1;SDS_P2;PMS_P1;PMS_P2;Temp;Humidity;BMP_temperature;BMP_pressure;BME280_temperature;BME280_humidity;BME280_pressure;Samples;Min_cycle;Max_cycle;Signal;HPM_P1;HPM_P2
2022/09/24 00:01:13;;;;;;;4.80;3.60;;;;;;;13.70;73.71;100604.69;108118;1274;72700;-76
2022/09/24 00:03:44;;;;;;;6.00;3.60;;;;;;;13.69;73.85;100606.45;108051;1276;63108;-77
2022/09/24 00:06:13;;;;;;;6.00;3.80;;;;;;;13.68;73.96;100608.41;108105;1274;61727;-76
2022/09/24 00:08:40;;;;;;;5.10;3.60;;;;;;;13.65;74.22;100605.23;108025;1276;76208;-76
2022/09/24 00:11:10;;;;;;;4.70;3.60;;;;;;;13.63;74.42;100602.31;108126;1274;71421;-76
2022/09/24 00:13:38;;;;;;;5.00;3.70;;;;;;;13.60;74.85;100598.12;108010;1276;72645;-76
2022/09/24 00:16:11;;;;;;;6.60;4.10;;;;;;;13.60;75.11;100599.67;108196;1274;62902;-76
2022/09/24 00:18:38;;;;;;;4.80;3.70;;;;;;;13.58;75.43;100593.59;108185;1274;61515;-76
2022/09/24 00:21:20;;;;;;;5.00;3.70;;;;;;;13.58;75.75;100593.34;108057;1274;75632;-76
2022/09/24 00:23:59;;;;;;;5.00;3.80;;;;;;;13.57;75.77;100592.15;108092;1274;71257;-76
2022/09/24 00:29:15;;;;;;;5.00;3.80;;;;;;;13.54;75.48;100592.98;108079;1276;62534;-76
2022/09/24 00:31:42;;;;;;;5.50;3.30;;;;;;;13.55;75.67;100591.52;108001;1274;60589;-76
2022/09/24 00:34:09;;;;;;;4.20;3.10;;;;;;;13.57;75.41;100591.86;108072;1274;75168;-76
2022/09/24 00:36:36;;;;;;;4.50;3.50;;;;;;;13.58;75.45;100591.21;108083;1275;71457;-76
2022/09/24 00:39:03;;;;;;;4.60;3.30;;;;;;;13.59;75.23;100588.77;108120;1274;72728;-77
2022/09/24 00:41:32;;;;;;;4.30;3.30;;;;;;;13.59;74.63;100587.24;108088;1274;63340;-76
2022/09/24 00:44:00;;;;;;;4.80;3.20;;;;;;;13.59;74.43;100590.97;108053;1276;60914;-76
2022/09/24 00:46:43;;;;;;;5.10;3.40;;;;;;;13.59;74.45;100588.59;108182;1274;76299;-76
2022/09/24 00:49:15;;;;;;;4.80;3.60;;;;;;;13.57;74.08;100586.75;108091;1274;71214;-76
2022/09/24 00:51:45;;;;;;;4.90;3.70;;;;;;;13.55;73.94;100586.11;108142;1272;72817;-76
2022/09/24 00:54:18;;;;;;;4.90;4.00;;;;;;;13.52;73.78;100582.13;108054;1274;61414;-76
2022/09/24 00:56:47;;;;;;;5.60;3.70;;;;;;;13.52;73.84;100580.65;108152;1277;62235;-76
2022/09/24 00:59:17;;;;;;;4.70;3.40;;;;;;;13.52;73.91;100580.45;108201;1274;76229;-76
2022/09/24 01:01:46;;;;;;;4.80;3.60;;;;;;;13.51;74.21;100584.13;108102;1274;72463;-76
2022/09/24 01:04:14;;;;;;;4.50;3.70;;;;;;;13.50;73.95;100579.66;108096;1276;73918;-76
2022/09/24 01:06:41;;;;;;;4.50;3.50;;;;;;;13.50;74.38;100579.77;108001;1274;63375;-76
2022/09/24 01:09:08;;;;;;;5.50;3.60;;;;;;;13.50;74.32;100582.04;108029;1274;60712;-76
2022/09/24 01:11:46;;;;;;;4.90;3.70;;;;;;;13.51;74.26;100579.58;108064;1274;76280;-76
2022/09/24 01:14:48;;;;;;;4.70;3.50;;;;;;;13.52;74.28;100574.14;108172;1274;71968;-76
2022/09/24 01:17:31;;;;;;;4.70;3.60;;;;;;;13.54;74.34;100571.85;108141;1273;73859;-76
2022/09/24 01:20:32;;;;;;;5.70;3.90;;;;;;;13.54;74.17;100569.68;108101;1274;63425;-76
2022/09/24 01:23:16;;;;;;;4.60;3.70;;;;;;;13.56;74.29;100571.58;108128;1274;61394;-76
2022/09/24 01:25:57;;;;;;;5.40;3.90;;;;;;;13.56;74.44;100572.07;108074;1275;75421;-76
2022/09/24 01:28:23;;;;;;;4.70;3.50;;;;;;;13.58;74.58;100567.42;108162;1274;71267;-76
2022/09/24 01:30:59;;;;;;;4.60;3.70;;;;;;;13.59;74.60;100569.69;108058;1274;72846;-76
2022/09/24 01:33:30;;;;;;;7.10;3.70;;;;;;;13.61;74.60;100569.62;108082;1274;62424;-76
2022/09/24 01:36:05;;;;;;;4.70;3.60;;;;;;;13.63;74.83;100572.45;108199;1274;61647;-76
2022/09/24 01:38:37;;;;;;;5.00;3.60;;;;;;;13.63;74.90;100575.63;108038;1276;76291;-76
2022/09/24 01:41:10;;;;;;;5.40;3.80;;;;;;;13.63;74.88;100572.05;108158;1274;72555;-76
2022/09/24 01:43:38;;;;;;;4.50;4.00;;;;;;;13.63;75.02;100566.52;108087;1274;72641;-76
2022/09/24 01:46:09;;;;;;;5.00;4.00;;;;;;;13.63;74.91;100567.25;107969;1274;61888;-76
2022/09/24 01:48:36;;;;;;;4.60;3.40;;;;;;;13.61;74.99;100567.45;108187;1274;60588;-76
2022/09/24 01:51:12;;;;;;;4.50;3.80;;;;;;;13.60;74.95;100567.08;108120;1274;74749;-76
2022/09/24 01:53:47;;;;;;;5.50;3.80;;;;;;;13.58;75.44;100563.58;108088;1275;71295;-76
2022/09/24 01:56:26;;;;;;;5.50;3.90;;;;;;;13.56;75.50;100560.34;108010;1274;73883;-76
2022/09/24 01:59:00;;;;;;;5.60;3.80;;;;;;;13.53;75.88;100558.98;108061;1274;62263;-76
2022/09/24 02:01:55;;;;;;;6.60;3.70;;;;;;;13.52;75.86;100561.79;108177;1274;61643;-76
2022/09/24 02:04:24;;;;;;;4.60;3.70;;;;;;;13.50;76.14;100557.14;107964;1276;74115;-77
2022/09/24 02:07:03;;;;;;;6.70;4.10;;;;;;;13.45;76.11;100557.98;108077;1274;72356;-76
2022/09/24 02:09:33;;;;;;;5.20;3.70;;;;;;;13.42;76.30;100554.69;108127;1274;73761;-76
2022/09/24 02:12:16;;;;;;;6.40;3.90;;;;;;;13.41;76.65;100552.44;108172;1274;62365;-77
2022/09/24 02:14:53;;;;;;;6.70;4.50;;;;;;;13.41;76.73;100548.67;108084;1274;61897;-76
2022/09/24 02:17:22;;;;;;;5.90;4.30;;;;;;;13.42;76.97;100550.39;108158;1274;76131;-76
2022/09/24 02:19:49;;;;;;;4.80;4.10;;;;;;;13.42;77.24;100545.91;108214;1274;70242;-76
2022/09/24 02:22:16;;;;;;;6.00;4.50;;;;;;;13.43;77.39;100548.47;108081;1276;73178;-76
2022/09/24 02:24:55;;;;;;;7.30;4.70;;;;;;;13.44;77.52;100552.98;108103;1274;62505;-76
2022/09/24 02:27:27;;;;;;;6.20;4.70;;;;;;;13.43;77.53;100556.16;108158;1274;61397;-76
2022/09/24 02:29:58;;;;;;;6.70;5.00;;;;;;;13.38;78.05;100552.49;108032;1274;75937;-76
2022/09/24 02:32:29;;;;;;;5.80;4.70;;;;;;;13.34;78.20;100551.95;108169;1274;71597;-76
2022/09/24 02:35:01;;;;;;;7.00;4.80;;;;;;;13.32;78.49;100550.89;108114;1274;72726;-76
2022/09/24 02:37:32;;;;;;;7.00;5.20;;;;;;;13.31;78.74;100554.18;108142;1274;61005;-76
2022/09/24 02:40:00;;;;;;;6.10;5.20;;;;;;;13.30;78.75;100553.18;108194;1274;60655;-76
2022/09/24 02:42:27;;;;;;;7.30;4.90;;;;;;;13.29;78.85;100552.04;108077;1274;76508;-76
2022/09/24 02:44:56;;;;;;;6.10;4.80;;;;;;;13.29;79.18;100544.33;108073;1274;71571;-76
2022/09/24 02:47:23;;;;;;;7.40;5.20;;;;;;;13.28;79.14;100544.36;108074;1274;74142;-76
2022/09/24 02:49:49;;;;;;;7.10;5.20;;;;;;;13.26;79.39;100545.64;108204;1274;63235;-76
2022/09/24 02:52:17;;;;;;;7.40;5.30;;;;;;;13.25;79.74;100548.22;108179;1274;61596;-76
2022/09/24 02:54:44;;;;;;;6.90;5.50;;;;;;;13.26;79.84;100546.58;108103;1274;76086;-76
2022/09/24 02:57:11;;;;;;;6.70;5.20;;;;;;;13.25;80.32;100545.02;108042;1276;73595;-76
2022/09/24 02:59:38;;;;;;;8.10;5.60;;;;;;;13.26;80.45;100544.78;108161;1274;75725;-76
2022/09/24 03:02:05;;;;;;;6.30;5.50;;;;;;;13.25;80.56;100546.81;108116;1274;63317;-76
2022/09/24 03:04:32;;;;;;;7.60;5.50;;;;;;;13.25;80.68;100545.58;108199;1274;59837;-76
2022/09/24 03:06:59;;;;;;;9.00;5.80;;;;;;;13.25;80.64;100550.27;108049;1274;75373;-76
2022/09/24 03:09:26;;;;;;;8.80;6.00;;;;;;;13.25;80.60;100548.77;108086;1274;71252;-76
2022/09/24 03:11:53;;;;;;;7.20;5.50;;;;;;;13.25;80.72;100546.83;108174;1274;74190;-75
2022/09/24 03:14:20;;;;;;;7.10;6.10;;;;;;;13.26;80.97;100541.95;108022;1276;62093;-76
2022/09/24 03:16:47;;;;;;;7.40;6.40;;;;;;;13.27;81.03;100542.58;108166;1274;60619;-76
2022/09/24 03:19:14;;;;;;;7.80;6.30;;;;;;;13.26;81.10;100541.21;108179;1274;74928;-75
2022/09/24 03:21:40;;;;;;;9.50;6.40;;;;;;;13.25;81.35;100543.58;108180;1274;72204;-76
2022/09/24 03:24:07;;;;;;;9.00;6.60;;;;;;;13.25;81.46;100543.13;108058;1274;71885;-76
2022/09/24 03:26:35;;;;;;;6.60;5.90;;;;;;;13.24;81.82;100540.52;108085;1274;60986;-76
2022/09/24 03:29:01;;;;;;;8.20;6.30;;;;;;;13.24;81.74;100534.48;108142;1274;60171;-76
2022/09/24 03:31:28;;;;;;;7.50;6.00;;;;;;;13.24;82.11;100531.52;107977;1276;73427;-76
2022/09/24 03:33:56;;;;;;;7.70;6.30;;;;;;;13.23;82.16;100529.67;108195;1274;69717;-76
2022/09/24 03:36:24;;;;;;;8.70;6.00;;;;;;;13.21;82.28;100527.29;108094;1274;73162;-76
2022/09/24 03:38:55;;;;;;;9.20;6.80;;;;;;;13.20;82.26;100522.16;108035;1276;61819;-76
2022/09/24 03:41:23;;;;;;;8.00;6.70;;;;;;;13.17;82.47;100517.84;107927;1274;61698;-76
2022/09/24 03:43:50;;;;;;;9.20;6.70;;;;;;;13.15;82.72;100513.15;108090;1275;76258;-76
2022/09/24 03:46:18;;;;;;;9.50;7.00;;;;;;;13.13;82.68;100513.48;108100;1274;73539;-76
2022/09/24 03:48:46;;;;;;;9.80;7.60;;;;;;;13.09;82.56;100512.38;108090;1274;72999;-76
2022/09/24 03:51:15;;;;;;;10.40;8.10;;;;;;;13.04;82.79;100513.79;108163;1274;62289;-76
2022/09/24 03:53:42;;;;;;;10.40;8.00;;;;;;;13.01;83.06;100509.02;108061;1274;59932;-76
2022/09/24 03:56:10;;;;;;;10.40;8.50;;;;;;;13.00;83.06;100505.48;108184;1274;75730;-76
2022/09/24 03:58:38;;;;;;;11.00;9.00;;;;;;;12.98;83.06;100506.86;108065;1275;70343;-77
2022/09/24 04:01:09;;;;;;;11.10;9.00;;;;;;;12.98;82.96;100507.81;108070;1274;73985;-76
2022/09/24 04:03:36;;;;;;;11.80;9.30;;;;;;;12.95;82.86;100506.25;108180;1274;61939;-76
2022/09/24 04:06:06;;;;;;;16.00;10.50;;;;;;;12.94;82.71;100506.47;108087;1274;61338;-75
2022/09/24 04:08:33;;;;;;;15.20;10.90;;;;;;;12.92;83.08;100502.77;108094;1275;76162;-77
2022/09/24 04:10:59;;;;;;;13.10;10.30;;;;;;;12.92;83.29;100494.63;108088;1274;72429;-76
2022/09/24 04:13:27;;;;;;;12.30;9.40;;;;;;;12.92;83.39;100498.72;108159;1274;73226;-76
2022/09/24 04:15:54;;;;;;;9.90;8.70;;;;;;;12.90;83.55;100497.66;108080;1274;63116;-76
2022/09/24 04:18:22;;;;;;;10.30;8.40;;;;;;;12.89;83.61;100502.67;107968;1274;59736;-76
2022/09/24 04:20:48;;;;;;;8.60;7.80;;;;;;;12.85;83.89;100498.88;108199;1274;75640;-76
2022/09/24 04:23:16;;;;;;;8.70;7.10;;;;;;;12.83;84.36;100500.09;108131;1274;71357;-76
2022/09/24 04:25:42;;;;;;;8.40;7.40;;;;;;;12.81;83.98;100499.39;108016;1277;73388;-76
2022/09/24 04:28:09;;;;;;;8.50;7.30;;;;;;;12.76;84.25;100496.27;108091;1274;61797;-76
2022/09/24 04:30:37;;;;;;;9.10;7.30;;;;;;;12.72;84.38;100493.58;108087;1274;61759;-76
2022/09/24 04:33:05;;;;;;;8.20;7.40;;;;;;;12.69;84.72;100495.08;108114;1274;76381;-76
2022/09/24 04:35:34;;;;;;;11.00;8.40;;;;;;;12.67;84.95;100498.49;108221;1274;72654;-76
2022/09/24 04:38:02;;;;;;;11.50;9.10;;;;;;;12.61;84.89;100498.30;108142;1274;72657;-76
2022/09/24 04:40:29;;;;;;;10.10;8.60;;;;;;;12.56;85.19;100495.96;108202;1274;63641;-76
2022/09/24 04:42:56;;;;;;;10.70;8.30;;;;;;;12.54;85.55;100493.30;108197;1274;61724;-76
2022/09/24 04:45:25;;;;;;;9.30;7.70;;;;;;;12.53;85.67;100495.38;108226;1274;74033;-76
2022/09/24 04:47:56;;;;;;;10.00;8.30;;;;;;;12.52;85.71;100495.61;108125;1274;71309;-76
2022/09/24 04:50:28;;;;;;;9.80;8.20;;;;;;;12.52;85.94;100493.48;108044;1277;73108;-76
2022/09/24 04:52:55;;;;;;;9.40;8.30;;;;;;;12.52;85.87;100494.46;108146;1275;63439;-76
2022/09/24 04:55:24;;;;;;;9.70;8.50;;;;;;;12.52;85.87;100492.71;108011;1277;61753;-76
2022/09/24 04:57:51;;;;;;;10.50;8.10;;;;;;;12.53;86.17;100494.87;108010;1275;75991;-76
2022/09/24 05:00:19;;;;;;;10.30;8.30;;;;;;;12.53;85.97;100493.94;108014;1274;70703;-76
2022/09/24 05:02:47;;;;;;;10.00;8.40;;;;;;;12.55;86.35;100495.17;108087;1274;73182;-76
2022/09/24 05:05:14;;;;;;;10.80;8.50;;;;;;;12.56;86.15;100499.09;108151;1274;62170;-76
2022/09/24 05:07:41;;;;;;;10.20;8.80;;;;;;;12.58;86.02;100500.11;108200;1274;60684;-77
2022/09/24 05:10:08;;;;;;;9.50;8.50;;;;;;;12.59;86.19;100501.20;108199;1274;75731;-76
2022/09/24 05:12:35;;;;;;;13.30;9.00;;;;;;;12.60;86.10;100498.55;107978;1274;71349;-76
2022/09/24 05:15:03;;;;;;;9.90;8.90;;;;;;;12.61;86.13;100500.27;108167;1274;72843;-76
2022/09/24 05:17:30;;;;;;;9.60;8.60;;;;;;;12.59;86.06;100496.77;108097;1274;61839;-76
2022/09/24 05:19:58;;;;;;;9.80;8.50;;;;;;;12.57;86.12;100500.69;108079;1274;59583;-76
2022/09/24 05:22:28;;;;;;;9.90;8.90;;;;;;;12.57;86.38;100498.76;108213;1274;74988;-77
2022/09/24 05:24:55;;;;;;;10.40;9.20;;;;;;;12.56;86.34;100498.38;108117;1274;71098;-76
2022/09/24 05:27:23;;;;;;;12.00;8.40;;;;;;;12.57;86.57;100497.45;108081;1276;72533;-76
2022/09/24 05:29:50;;;;;;;10.40;8.50;;;;;;;12.54;86.41;100502.71;108116;1274;62354;-77
2022/09/24 05:32:19;;;;;;;9.60;8.40;;;;;;;12.54;86.63;100502.92;108173;1274;60328;-76
2022/09/24 05:34:46;;;;;;;9.60;8.30;;;;;;;12.54;86.48;100503.62;108219;1273;76197;-76
2022/09/24 05:37:14;;;;;;;9.40;8.20;;;;;;;12.54;86.60;100504.68;108139;1274;71512;-76
2022/09/24 05:39:41;;;;;;;9.00;8.10;;;;;;;12.53;86.45;100504.80;108061;1274;72829;-76
2022/09/24 05:42:13;;;;;;;9.40;8.50;;;;;;;12.50;86.62;100508.08;108120;1275;63347;-76
2022/09/24 05:44:42;;;;;;;9.90;8.80;;;;;;;12.48;87.05;100510.27;108204;1274;61547;-76
2022/09/24 05:47:12;;;;;;;9.60;7.70;;;;;;;12.49;87.18;100513.80;108172;1274;75327;-76
2022/09/24 05:49:39;;;;;;;9.40;8.50;;;;;;;12.52;87.31;100512.80;108254;1274;72677;-76
2022/09/24 05:52:06;;;;;;;9.10;8.10;;;;;;;12.54;86.90;100516.46;108219;1274;73513;-76
2022/09/24 05:54:34;;;;;;;10.20;8.50;;;;;;;12.53;87.15;100512.23;108190;1274;63246;-76
2022/09/24 05:57:01;;;;;;;9.40;8.50;;;;;;;12.55;87.09;100512.37;108249;1274;61611;-76
2022/09/24 05:59:27;;;;;;;9.30;8.20;;;;;;;12.56;87.36;100515.77;108118;1274;75179;-76
2022/09/24 06:01:54;;;;;;;9.50;8.40;;;;;;;12.57;87.28;100515.83;108112;1274;73571;-76
2022/09/24 06:04:21;;;;;;;9.20;8.30;;;;;;;12.59;87.33;100517.23;108103;1274;73001;-77
2022/09/24 06:06:49;;;;;;;9.20;7.60;;;;;;;12.62;87.52;100515.55;108087;1275;61200;-76
2022/09/24 06:09:16;;;;;;;8.80;7.90;;;;;;;12.65;87.47;100517.66;108146;1274;60611;-76
2022/09/24 06:11:43;;;;;;;9.80;8.30;;;;;;;12.70;87.48;100520.99;108182;1274;76002;-76
2022/09/24 06:14:10;;;;;;;9.30;8.40;;;;;;;12.75;87.16;100519.48;108133;1274;71061;-76
2022/09/24 06:16:37;;;;;;;10.60;8.60;;;;;;;12.79;87.19;100522.55;108193;1273;73860;-76
2022/09/24 06:19:04;;;;;;;9.50;8.00;;;;;;;12.82;86.91;100520.32;108200;1273;62152;-75
2022/09/24 06:21:31;;;;;;;9.10;8.10;;;;;;;12.89;87.11;100525.02;107664;1274;61389;-75
2022/09/24 06:23:58;;;;;;;9.30;8.10;;;;;;;12.95;86.83;100526.67;107827;1274;74861;-75
2022/09/24 06:26:26;;;;;;;10.20;7.70;;;;;;;12.99;86.30;100524.57;107480;1274;71977;-75
2022/09/24 06:28:53;;;;;;;8.80;7.80;;;;;;;13.03;86.55;100523.13;107667;1274;74483;-75
2022/09/24 06:31:20;;;;;;;9.40;8.00;;;;;;;13.05;86.33;100522.93;107495;1274;62071;-75
2022/09/24 06:33:47;;;;;;;11.00;8.60;;;;;;;13.06;86.27;100524.54;107511;1274;61467;-75
2022/09/24 06:36:14;;;;;;;10.30;8.60;;;;;;;13.12;86.07;100528.14;107829;1274;75130;-75
2022/09/24 06:38:41;;;;;;;10.50;8.00;;;;;;;13.19;86.02;100534.38;107781;1274;72427;-75
2022/09/24 06:41:08;;;;;;;10.30;8.40;;;;;;;13.26;85.77;100538.88;107750;1274;72792;-75
2022/09/24 06:43:35;;;;;;;9.50;8.10;;;;;;;13.31;85.09;100540.61;107815;1274;61973;-74
2022/09/24 06:46:03;;;;;;;10.40;8.20;;;;;;;13.37;85.41;100536.05;107732;1274;61792;-75
2022/09/24 06:48:36;;;;;;;10.50;8.20;;;;;;;13.47;85.27;100535.86;107723;1274;75288;-76
2022/09/24 06:51:07;;;;;;;10.40;8.20;;;;;;;13.57;85.19;100534.46;107638;1274;72484;-76
2022/09/24 06:53:33;;;;;;;9.00;8.10;;;;;;;13.68;84.65;100536.56;108050;1274;72895;-75
2022/09/24 06:56:02;;;;;;;10.00;8.30;;;;;;;13.77;84.27;100537.33;107815;1274;62067;-76
2022/09/24 06:58:32;;;;;;;12.10;8.40;;;;;;;13.87;83.87;100541.05;107751;1274;61781;-76
2022/09/24 07:01:01;;;;;;;10.70;7.40;;;;;;;13.97;83.78;100544.33;107912;1274;75064;-76
2022/09/24 07:03:33;;;;;;;9.60;8.50;;;;;;;14.06;83.34;100539.27;107575;1274;70071;-76
2022/09/24 07:06:03;;;;;;;10.30;9.30;;;;;;;14.17;83.43;100537.58;107729;1274;72333;-75
2022/09/24 07:08:34;;;;;;;12.20;7.80;;;;;;;14.28;82.88;100533.48;107643;1274;62119;-74
2022/09/24 07:11:01;;;;;;;8.80;8.00;;;;;;;14.34;82.47;100532.50;107879;1274;59445;-75
2022/09/24 07:13:27;;;;;;;9.50;8.50;;;;;;;14.40;82.39;100531.11;108106;1274;77131;-75
2022/09/24 07:15:54;;;;;;;9.70;8.40;;;;;;;14.46;82.41;100533.09;107877;1277;72420;-75
2022/09/24 07:18:22;;;;;;;8.50;7.50;;;;;;;14.54;81.72;100529.94;107991;1274;74409;-74
2022/09/24 07:20:52;;;;;;;9.30;8.30;;;;;;;14.54;80.47;100533.29;107843;1274;61711;-74
2022/09/24 07:23:20;;;;;;;9.30;8.30;;;;;;;14.54;80.40;100529.45;107993;1274;60559;-74
2022/09/24 07:25:47;;;;;;;9.40;8.40;;;;;;;14.57;80.60;100528.28;107661;1274;76259;-74
2022/09/24 07:28:14;;;;;;;10.80;8.10;;;;;;;14.61;80.27;100528.64;108157;1274;71237;-74
2022/09/24 07:30:41;;;;;;;10.00;8.20;;;;;;;14.66;80.25;100530.25;108038;1274;73720;-74
2022/09/24 07:33:08;;;;;;;8.70;7.80;;;;;;;14.73;80.13;100528.27;108096;1274;61857;-74
2022/09/24 07:35:38;;;;;;;10.00;9.00;;;;;;;14.82;80.16;100530.45;107855;1274;60606;-75
2022/09/24 07:38:10;;;;;;;9.90;8.30;;;;;;;14.91;79.90;100529.98;107794;1273;74850;-75
2022/09/24 07:40:38;;;;;;;10.10;8.70;;;;;;;14.97;79.53;100531.09;107979;1274;70589;-75
2022/09/24 07:43:06;;;;;;;9.20;8.30;;;;;;;15.03;79.31;100531.73;107681;1276;72702;-75
2022/09/24 07:45:33;;;;;;;9.60;8.50;;;;;;;15.09;78.72;100535.42;107820;1274;63246;-74
2022/09/24 07:48:01;;;;;;;11.20;8.40;;;;;;;15.10;78.08;100537.89;108102;1274;61778;-74
2022/09/24 07:50:30;;;;;;;8.70;7.80;;;;;;;15.13;78.15;100532.04;107913;1276;73912;-74
2022/09/24 07:52:57;;;;;;;8.40;7.00;;;;;;;15.16;77.61;100534.02;108059;1274;70285;-78
2022/09/24 07:55:26;;;;;;;9.50;7.50;;;;;;;15.21;77.54;100535.69;107767;1274;73978;-75
2022/09/24 07:57:54;;;;;;;9.40;7.60;;;;;;;15.27;77.24;100536.34;107975;1274;63415;-75
2022/09/24 08:00:22;;;;;;;10.70;7.70;;;;;;;15.32;76.93;100538.70;107880;1274;60516;-75
2022/09/24 08:02:50;;;;;;;9.90;7.90;;;;;;;15.40;77.19;100542.38;107888;1274;74936;-75
2022/09/24 08:05:17;;;;;;;10.20;8.00;;;;;;;15.49;77.05;100543.58;107688;1274;71962;-75
2022/09/24 08:07:51;;;;;;;10.00;8.40;;;;;;;15.57;76.87;100545.08;108001;1274;73920;-75
2022/09/24 08:10:18;;;;;;;9.30;8.20;;;;;;;15.65;76.73;100545.13;107919;1274;62048;-75
2022/09/24 08:12:45;;;;;;;9.30;7.50;;;;;;;15.74;76.31;100547.88;107875;1274;61768;-73
2022/09/24 08:15:12;;;;;;;10.70;8.50;;;;;;;15.76;75.51;100547.00;107924;1274;75278;-74
2022/09/24 08:17:39;;;;;;;10.70;8.30;;;;;;;15.79;75.23;100551.84;108052;1274;72571;-75
2022/09/24 08:20:06;;;;;;;11.10;8.60;;;;;;;15.82;75.23;100550.31;107705;1274;61160;-75
2022/09/24 08:22:32;;;;;;;11.20;8.90;;;;;;;15.88;75.26;100549.16;107931;1274;62219;-74
2022/09/24 08:25:00;;;;;;;12.30;8.70;;;;;;;15.94;75.23;100553.50;108066;1276;59996;-74
2022/09/24 08:27:27;;;;;;;10.00;9.00;;;;;;;15.99;75.06;100548.37;108113;1274;75576;-74
2022/09/24 08:29:56;;;;;;;9.70;8.70;;;;;;;16.06;74.83;100553.48;108010;1274;71361;-74
2022/09/24 08:32:24;;;;;;;11.70;9.90;;;;;;;16.11;74.79;100554.19;107730;1274;74019;-74
2022/09/24 08:34:50;;;;;;;11.40;9.90;;;;;;;16.13;74.42;100555.25;107678;1274;63089;-74
2022/09/24 08:37:18;;;;;;;11.50;9.50;;;;;;;16.17;73.97;100557.36;107952;1272;60310;-74
2022/09/24 08:39:45;;;;;;;12.10;10.30;;;;;;;16.17;73.88;100552.60;108142;1274;74801;-75
2022/09/24 08:42:21;;;;;;;11.80;9.20;;;;;;;16.19;73.53;100556.08;108092;1274;73626;-75
2022/09/24 08:47:44;;;;;;;10.40;9.00;;;;;;;16.26;73.21;100551.46;107791;1274;61816;-75
2022/09/24 08:50:24;;;;;;;14.00;9.40;;;;;;;16.28;73.00;100554.16;108092;1274;59369;-73
2022/09/24 08:53:12;;;;;;;11.60;9.00;;;;;;;16.30;72.73;100551.85;107953;1274;75961;-73
2022/09/24 08:55:45;;;;;;;11.40;9.20;;;;;;;16.31;72.39;100552.05;107731;1274;71825;-73
2022/09/24 08:58:23;;;;;;;13.10;10.80;;;;;;;16.34;72.08;100552.39;108111;1274;72814;-73
2022/09/24 09:00:56;;;;;;;12.90;10.50;;;;;;;16.38;72.55;100552.98;107909;1274;63025;-74
2022/09/24 09:03:37;;;;;;;9.20;8.00;;;;;;;16.43;71.68;100550.14;108132;1274;60447;-74
2022/09/24 09:06:52;;;;;;;9.60;8.30;;;;;;;16.45;70.83;100559.36;108194;1272;77124;-74
2022/09/24 09:09:24;;;;;;;10.40;8.10;;;;;;;16.50;70.81;100563.81;107440;1280;72099;-75
2022/09/24 09:11:57;;;;;;;11.10;8.20;;;;;;;16.57;71.04;100569.45;107551;1279;72666;-74
2022/09/24 09:14:40;;;;;;;9.80;8.10;;;;;;;16.66;70.90;100571.23;107603;1274;63224;-74
2022/09/24 09:17:41;;;;;;;9.30;7.70;;;;;;;16.73;70.56;100575.02;108179;1274;61371;-74
2022/09/24 09:20:17;;;;;;;11.80;8.10;;;;;;;16.78;70.39;100579.73;107990;1276;76362;-74
2022/09/24 09:22:47;;;;;;;10.40;8.10;;;;;;;16.82;70.42;100580.45;108233;1273;72460;-74
2022/09/24 09:25:35;;;;;;;9.40;8.20;;;;;;;16.89;70.57;100580.33;107834;1274;72688;-74
2022/09/24 09:28:16;;;;;;;10.30;8.80;;;;;;;16.94;69.81;100580.31;107858;1274;62049;-74
2022/09/24 09:31:05;;;;;;;10.60;8.30;;;;;;;16.94;69.50;100577.63;107785;1274;61382;-73
2022/09/24 09:33:44;;;;;;;10.80;8.90;;;;;;;16.97;69.49;100581.11;108119;1274;75135;-73
2022/09/24 09:36:44;;;;;;;12.70;9.40;;;;;;;17.01;69.68;100581.98;107932;1274;71504;-74
2022/09/24 09:39:41;;;;;;;10.30;8.20;;;;;;;17.03;68.57;100586.45;107881;1274;74318;-73
2022/09/24 09:42:14;;;;;;;10.40;8.10;;;;;;;17.00;68.32;100586.00;108075;1274;60729;-73
2022/09/24 09:44:45;;;;;;;9.40;8.00;;;;;;;17.02;68.62;100586.42;107966;1274;61535;-73
2022/09/24 09:47:39;;;;;;;10.50;8.60;;;;;;;17.06;68.67;100586.68;108036;1276;74721;-73
2022/09/24 09:50:35;;;;;;;10.30;8.70;;;;;;;17.13;68.83;100582.24;108099;1274;71124;-73
2022/09/24 09:53:04;;;;;;;10.50;8.40;;;;;;;17.26;68.05;100582.20;107932;1276;76121;-74
2022/09/24 09:55:36;;;;;;;11.30;8.50;;;;;;;17.38;67.88;100584.55;107862;1276;63333;-74
2022/09/24 09:58:18;;;;;;;9.90;8.70;;;;;;;17.46;66.82;100585.27;108026;1274;60720;-73
2022/09/24 10:00:48;;;;;;;11.40;8.90;;;;;;;17.56;66.50;100588.14;107924;1274;77269;-74
2022/09/24 10:03:25;;;;;;;20.90;17.90;;;;;;;17.69;65.44;100589.57;107684;1274;71429;-74
2022/09/24 10:05:59;;;;;;;11.90;8.70;;;;;;;17.87;64.82;100590.48;107968;1274;70650;-73
2022/09/24 10:08:26;;;;;;;21.70;18.70;;;;;;;18.08;64.56;100584.48;108032;1274;62371;-73
2022/09/24 10:11:02;;;;;;;14.70;12.20;;;;;;;18.27;63.06;100583.80;107981;1274;61372;-74
2022/09/24 10:13:31;;;;;;;12.50;9.60;;;;;;;18.46;61.41;100581.33;108071;1274;74581;-74
2022/09/24 10:16:10;;;;;;;20.30;16.50;;;;;;;18.57;59.66;100581.66;107826;1276;73157;-73
2022/09/24 10:18:49;;;;;;;77.60;68.10;;;;;;;18.67;59.56;100577.13;108145;1272;74070;-73
2022/09/24 10:21:36;;;;;;;15.40;13.30;;;;;;;18.85;59.70;100575.54;107970;1274;60710;-73
2022/09/24 10:24:10;;;;;;;13.50;9.20;;;;;;;18.97;58.60;100573.15;108197;1274;60527;-73
2022/09/24 10:26:43;;;;;;;10.60;8.00;;;;;;;18.99;57.38;100569.02;107823;1273;73862;-73
2022/09/24 10:32:03;;;;;;;10.00;8.20;;;;;;;18.92;57.58;100569.95;107925;1274;71577;-73
2022/09/24 10:34:30;;;;;;;11.50;8.30;;;;;;;18.95;58.02;100567.92;107764;1274;61354;-73
2022/09/24 10:37:03;;;;;;;10.60;8.50;;;;;;;18.93;57.03;100567.77;108079;1274;59927;-73
2022/09/24 10:39:36;;;;;;;11.50;8.40;;;;;;;18.89;56.96;100566.34;108009;1275;74916;-73
2022/09/24 10:42:06;;;;;;;12.40;8.90;;;;;;;18.82;57.17;100567.72;108138;1274;71141;-73
2022/09/24 10:44:35;;;;;;;10.20;8.70;;;;;;;18.77;56.87;100567.48;107784;1274;74639;-74
2022/09/24 10:47:14;;;;;;;11.20;8.40;;;;;;;18.68;57.22;100565.83;108004;1274;60706;-73
2022/09/24 10:50:06;;;;;;;10.00;8.00;;;;;;;18.70;57.65;100560.42;108050;1274;60321;-73
2022/09/24 10:52:39;;;;;;;10.80;7.60;;;;;;;18.69;58.05;100559.11;108079;1274;75696;-73
2022/09/24 10:55:27;;;;;;;9.40;6.90;;;;;;;18.66;58.31;100559.16;107698;1274;70602;-73
2022/09/24 10:58:01;;;;;;;9.20;6.90;;;;;;;18.63;58.37;100561.93;107950;1276;72360;-73
2022/09/24 11:00:38;;;;;;;8.40;6.50;;;;;;;18.62;58.63;100558.23;108034;1274;60347;-73
2022/09/24 11:03:17;;;;;;;7.80;6.30;;;;;;;18.50;58.87;100562.73;107999;1274;61100;-73
2022/09/24 11:05:55;;;;;;;9.40;6.50;;;;;;;18.46;59.83;100558.81;107809;1274;74791;-73
2022/09/24 11:08:40;;;;;;;8.60;6.20;;;;;;;18.44;60.19;100560.36;108031;1274;72191;-73
2022/09/24 11:11:22;;;;;;;7.90;5.90;;;;;;;18.27;60.40;100564.47;108037;1274;74285;-73
2022/09/24 11:14:04;;;;;;;7.60;5.40;;;;;;;18.14;60.51;100564.61;107998;1274;61640;-73
2022/09/24 11:16:37;;;;;;;8.10;5.60;;;;;;;17.98;60.71;100563.85;108019;1274;60374;-73
2022/09/24 11:19:22;;;;;;;8.10;5.40;;;;;;;17.81;61.42;100563.43;107910;1271;73952;-73
2022/09/24 11:22:23;;;;;;;6.60;5.00;;;;;;;17.73;61.87;100563.99;108000;1274;71392;-73
2022/09/24 11:25:18;;;;;;;6.20;4.70;;;;;;;17.72;62.38;100563.27;107564;1274;73414;-73
2022/09/24 11:28:00;;;;;;;7.80;5.00;;;;;;;17.62;61.85;100563.58;107872;1274;61606;-73
2022/09/24 11:30:59;;;;;;;6.20;5.20;;;;;;;17.59;62.54;100565.70;107978;1274;61712;-74
2022/09/24 11:33:58;;;;;;;7.20;5.40;;;;;;;17.60;63.46;100566.48;107945;1274;76369;-74
2022/09/24 11:36:42;;;;;;;6.70;5.30;;;;;;;17.60;63.70;100565.04;107988;1274;71651;-73
2022/09/24 11:39:46;;;;;;;8.10;5.60;;;;;;;17.63;63.39;100564.09;108028;1273;73091;-74
2022/09/24 11:42:32;;;;;;;7.90;5.30;;;;;;;17.64;64.53;100567.61;107868;1274;63778;-74
2022/09/24 11:45:11;;;;;;;7.70;5.50;;;;;;;17.71;64.97;100568.23;108169;1274;60684;-74